sensor_id;sensor_type;location;lat;lon;timestamp;temperature;humidity
21039;DHT22;10678;51.002;4.786;2022-10-10T00:00:30;9.20;99.90
21039;DHT22;10678;51.002;4.786;2022-10-10T00:02:56;9.20;99.90
21039;DHT22;10678;51.002;4.786;2022-10-10T00:05:21;9.20;99.90
21039;DHT22;10678;51.002;4.786;2022-10-10T00:07:47;9.10;99.90
21039;DHT22;10678;51.002;4.786;2022-10-10T00:10:13;9.20;99.90
21039;DHT22;10678;51.002;4.786;2022-10-10T00:12:38;9.10;99.90
21039;DHT22;10678;51.002;4.786;2022-10-10T00:15:04;9.10;99.90
21039;DHT22;10678;51.002;4.786;2022-10-10T00:17:30;9.00;99.90
21039;DHT22;10678;51.002;4.786;2022-10-10T00:19:56;9.10;99.90
21039;DHT22;10678;51.002;4.786;2022-10-10T00:22:21;9.10;99.90
21039;DHT22;10678;51.002;4.786;2022-10-10T00:24:47;9.10;99.90
21039;DHT22;10678;51.002;4.786;2022-10-10T00:27:12;9.00;99.90
21039;DHT22;10678;51.002;4.786;2022-10-10T00:29:38;9.00;99.90
21039;DHT22;10678;51.002;4.786;2022-10-10T00:32:03;9.00;99.90
21039;DHT22;10678;51.002;4.786;2022-10-10T00:34:29;9.10;99.90
21039;DHT22;10678;51.002;4.786;2022-10-10T00:36:54;9.00;99.90
21039;DHT22;10678;51.002;4.786;2022-10-10T00:39:20;9.00;99.90
21039;DHT22;10678;51.002;4.786;2022-10-10T00:41:46;9.00;99.90
21039;DHT22;10678;51.002;4.786;2022-10-10T00:44:13;9.00;99.90
21039;DHT22;10678;51.002;4.786;2022-10-10T00:46:40;9.00;99.90
21039;DHT22;10678;51.002;4.786;2022-10-10T00:49:11;9.00;99.90
21039;DHT22;10678;51.002;4.786;2022-10-10T00:51:37;9.00;99.90
21039;DHT22;10678;51.002;4.786;2022-10-10T00:54:06;9.10;99.90
21039;DHT22;10678;51.002;4.786;2022-10-10T00:56:43;8.90;99.90
21039;DHT22;10678;51.002;4.786;2022-10-10T00:59:10;9.00;99.90
21039;DHT22;10678;51.002;4.786;2022-10-10T01:01:38;9.00;99.90
21039;DHT22;10678;51.002;4.786;2022-10-10T01:04:04;8.90;99.90
21039;DHT22;10678;51.002;4.786;2022-10-10T01:06:32;9.00;99.90
21039;DHT22;10678;51.002;4.786;2022-10-10T01:08:58;8.90;99.90
21039;DHT22;10678;51.002;4.786;2022-10-10T01:11:39;8.80;99.90
21039;DHT22;10678;51.002;4.786;2022-10-10T01:14:14;8.80;99.90
21039;DHT22;10678;51.002;4.786;2022-10-10T01:17:08;8.80;99.90
21039;DHT22;10678;51.002;4.786;2022-10-10T01:23:37;8.80;99.90
21039;DHT22;10678;51.002;4.786;2022-10-10T01:28:49;8.80;99.90
21039;DHT22;10678;51.002;4.786;2022-10-10T01:31:22;8.80;99.90
21039;DHT22;10678;51.002;4.786;2022-10-10T01:36:53;8.80;99.90
21039;DHT22;10678;51.002;4.786;2022-10-10T01:39:41;8.80;99.90
21039;DHT22;10678;51.002;4.786;2022-10-10T01:42:46;8.70;99.90
21039;DHT22;10678;51.002;4.786;2022-10-10T01:45:08;8.60;99.90
21039;DHT22;10678;51.002;4.786;2022-10-10T01:47:34;8.60;99.90
21039;DHT22;10678;51.002;4.786;2022-10-10T01:50:03;8.60;99.90
21039;DHT22;10678;51.002;4.786;2022-10-10T01:52:51;8.70;99.90
21039;DHT22;10678;51.002;4.786;2022-10-10T01:58:43;8.70;99.90
21039;DHT22;10678;51.002;4.786;2022-10-10T02:04:26;8.60;99.90
21039;DHT22;10678;51.002;4.786;2022-10-10T02:06:51;8.60;99.90
21039;DHT22;10678;51.002;4.786;2022-10-10T02:09:23;8.60;99.90
21039;DHT22;10678;51.002;4.786;2022-10-10T02:11:51;8.60;99.90
21039;DHT22;10678;51.002;4.786;2022-10-10T02:14:27;8.50;99.90
21039;DHT22;10678;51.002;4.786;2022-10-10T02:16:55;8.60;99.90
21039;DHT22;10678;51.002;4.786;2022-10-10T02:19:23;8.60;99.90
21039;DHT22;10678;51.002;4.786;2022-10-10T02:21:51;8.70;99.90
21039;DHT22;10678;51.002;4.786;2022-10-10T02:24:20;8.60;99.90
21039;DHT22;10678;51.002;4.786;2022-10-10T02:26:51;8.70;99.90
21039;DHT22;10678;51.002;4.786;2022-10-10T02:29:19;8.60;99.90
21039;DHT22;10678;51.002;4.786;2022-10-10T02:34:48;8.60;99.90
21039;DHT22;10678;51.002;4.786;2022-10-10T02:37:15;8.60;99.90
21039;DHT22;10678;51.002;4.786;2022-10-10T02:39:43;8.60;99.90
21039;DHT22;10678;51.002;4.786;2022-10-10T02:42:12;8.50;99.90
21039;DHT22;10678;51.002;4.786;2022-10-10T02:44:39;8.60;99.90
21039;DHT22;10678;51.002;4.786;2022-10-10T02:47:05;8.60;99.90
21039;DHT22;10678;51.002;4.786;2022-10-10T02:49:32;8.50;99.90
21039;DHT22;10678;51.002;4.786;2022-10-10T02:51:59;8.50;99.90
21039;DHT22;10678;51.002;4.786;2022-10-10T02:54:25;8.50;99.90
21039;DHT22;10678;51.002;4.786;2022-10-10T02:56:51;8.50;99.90
21039;DHT22;10678;51.002;4.786;2022-10-10T02:59:16;8.50;99.90
21039;DHT22;10678;51.002;4.786;2022-10-10T03:01:42;8.50;99.90
21039;DHT22;10678;51.002;4.786;2022-10-10T03:04:08;8.50;99.90
21039;DHT22;10678;51.002;4.786;2022-10-10T03:06:34;8.50;99.90
21039;DHT22;10678;51.002;4.786;2022-10-10T03:09:00;8.40;99.90
21039;DHT22;10678;51.002;4.786;2022-10-10T03:11:26;8.40;99.90
21039;DHT22;10678;51.002;4.786;2022-10-10T03:13:51;8.40;99.90
21039;DHT22;10678;51.002;4.786;2022-10-10T03:16:17;8.40;99.90
21039;DHT22;10678;51.002;4.786;2022-10-10T03:18:42;8.30;99.90
21039;DHT22;10678;51.002;4.786;2022-10-10T03:21:08;8.30;99.90
21039;DHT22;10678;51.002;4.786;2022-10-10T03:23:34;8.30;99.90
21039;DHT22;10678;51.002;4.786;2022-10-10T03:26:00;8.40;99.90
21039;DHT22;10678;51.002;4.786;2022-10-10T03:28:26;8.40;99.90
21039;DHT22;10678;51.002;4.786;2022-10-10T03:30:52;8.50;99.90
21039;DHT22;10678;51.002;4.786;2022-10-10T03:33:17;8.50;99.90
21039;DHT22;10678;51.002;4.786;2022-10-10T03:35:43;8.50;99.90
21039;DHT22;10678;51.002;4.786;2022-10-10T03:38:10;8.50;99.90
21039;DHT22;10678;51.002;4.786;2022-10-10T03:40:41;8.40;99.90
21039;DHT22;10678;51.002;4.786;2022-10-10T03:43:11;8.50;99.90
21039;DHT22;10678;51.002;4.786;2022-10-10T03:45:37;8.50;99.90
21039;DHT22;10678;51.002;4.786;2022-10-10T03:48:04;8.50;99.90
21039;DHT22;10678;51.002;4.786;2022-10-10T03:50:29;8.50;99.90
21039;DHT22;10678;51.002;4.786;2022-10-10T03:52:55;8.50;99.90
21039;DHT22;10678;51.002;4.786;2022-10-10T03:55:21;8.50;99.90
21039;DHT22;10678;51.002;4.786;2022-10-10T03:57:46;8.60;99.90
21039;DHT22;10678;51.002;4.786;2022-10-10T04:00:12;8.60;99.90
21039;DHT22;10678;51.002;4.786;2022-10-10T04:02:38;8.60;99.90
21039;DHT22;10678;51.002;4.786;2022-10-10T04:05:04;8.70;99.90
21039;DHT22;10678;51.002;4.786;2022-10-10T04:07:30;8.70;99.90
21039;DHT22;10678;51.002;4.786;2022-10-10T04:09:56;8.80;99.90
21039;DHT22;10678;51.002;4.786;2022-10-10T04:12:22;8.80;99.90
21039;DHT22;10678;51.002;4.786;2022-10-10T04:14:48;8.90;99.90
21039;DHT22;10678;51.002;4.786;2022-10-10T04:17:13;8.80;99.90
21039;DHT22;10678;51.002;4.786;2022-10-10T04:19:39;8.90;99.90
21039;DHT22;10678;51.002;4.786;2022-10-10T04:22:05;9.00;99.90
21039;DHT22;10678;51.002;4.786;2022-10-10T04:24:30;9.00;99.90
21039;DHT22;10678;51.002;4.786;2022-10-10T04:26:56;8.90;99.90
21039;DHT22;10678;51.002;4.786;2022-10-10T04:29:22;8.90;99.90
21039;DHT22;10678;51.002;4.786;2022-10-10T04:31:47;8.90;99.90
21039;DHT22;10678;51.002;4.786;2022-10-10T04:34:13;8.90;99.90
21039;DHT22;10678;51.002;4.786;2022-10-10T04:36:39;8.90;99.90
21039;DHT22;10678;51.002;4.786;2022-10-10T04:39:05;8.90;99.90
21039;DHT22;10678;51.002;4.786;2022-10-10T04:41:31;9.00;99.90
21039;DHT22;10678;51.002;4.786;2022-10-10T04:43:57;9.00;99.90
21039;DHT22;10678;51.002;4.786;2022-10-10T04:46:22;9.00;99.90
21039;DHT22;10678;51.002;4.786;2022-10-10T04:48:48;9.00;99.90
21039;DHT22;10678;51.002;4.786;2022-10-10T04:51:14;9.10;99.90
21039;DHT22;10678;51.002;4.786;2022-10-10T04:53:39;9.10;99.90
21039;DHT22;10678;51.002;4.786;2022-10-10T04:56:05;9.20;99.90
21039;DHT22;10678;51.002;4.786;2022-10-10T04:58:30;9.20;99.90
21039;DHT22;10678;51.002;4.786;2022-10-10T05:00:56;9.30;99.90
21039;DHT22;10678;51.002;4.786;2022-10-10T05:03:22;9.40;99.90
21039;DHT22;10678;51.002;4.786;2022-10-10T05:05:49;9.40;99.90
21039;DHT22;10678;51.002;4.786;2022-10-10T05:08:15;9.50;99.90
21039;DHT22;10678;51.002;4.786;2022-10-10T05:10:41;9.60;99.90
21039;DHT22;10678;51.002;4.786;2022-10-10T05:13:09;9.60;99.90
21039;DHT22;10678;51.002;4.786;2022-10-10T05:15:36;9.60;99.90
21039;DHT22;10678;51.002;4.786;2022-10-10T05:18:02;9.70;99.90
21039;DHT22;10678;51.002;4.786;2022-10-10T05:20:28;9.70;99.90
21039;DHT22;10678;51.002;4.786;2022-10-10T05:22:54;9.70;99.90
21039;DHT22;10678;51.002;4.786;2022-10-10T05:25:19;9.80;99.90
21039;DHT22;10678;51.002;4.786;2022-10-10T05:27:45;9.80;99.90
21039;DHT22;10678;51.002;4.786;2022-10-10T05:30:11;9.90;99.90
21039;DHT22;10678;51.002;4.786;2022-10-10T05:32:37;9.90;99.90
21039;DHT22;10678;51.002;4.786;2022-10-10T05:35:02;10.00;99.90
21039;DHT22;10678;51.002;4.786;2022-10-10T05:37:29;10.00;99.90
21039;DHT22;10678;51.002;4.786;2022-10-10T05:39:55;10.10;99.90
21039;DHT22;10678;51.002;4.786;2022-10-10T05:42:21;10.10;99.90
21039;DHT22;10678;51.002;4.786;2022-10-10T05:44:47;10.10;99.90
21039;DHT22;10678;51.002;4.786;2022-10-10T05:47:12;10.10;99.90
21039;DHT22;10678;51.002;4.786;2022-10-10T05:49:39;10.20;99.90
21039;DHT22;10678;51.002;4.786;2022-10-10T05:52:04;10.20;99.90
21039;DHT22;10678;51.002;4.786;2022-10-10T05:54:30;10.20;99.90
21039;DHT22;10678;51.002;4.786;2022-10-10T05:56:55;10.20;99.90
21039;DHT22;10678;51.002;4.786;2022-10-10T05:59:21;10.20;99.90
21039;DHT22;10678;51.002;4.786;2022-10-10T06:01:47;10.20;99.90
21039;DHT22;10678;51.002;4.786;2022-10-10T06:04:13;10.10;99.90
21039;DHT22;10678;51.002;4.786;2022-10-10T06:06:38;10.10;99.90
21039;DHT22;10678;51.002;4.786;2022-10-10T06:09:04;10.10;99.90
21039;DHT22;10678;51.002;4.786;2022-10-10T06:11:30;10.20;99.90
21039;DHT22;10678;51.002;4.786;2022-10-10T06:13:55;10.20;99.90
21039;DHT22;10678;51.002;4.786;2022-10-10T06:16:23;10.20;99.90
21039;DHT22;10678;51.002;4.786;2022-10-10T06:18:49;10.20;99.90
21039;DHT22;10678;51.002;4.786;2022-10-10T06:21:14;10.30;99.90
21039;DHT22;10678;51.002;4.786;2022-10-10T06:23:41;10.30;99.90
21039;DHT22;10678;51.002;4.786;2022-10-10T06:26:07;10.40;99.90
21039;DHT22;10678;51.002;4.786;2022-10-10T06:28:33;10.40;99.90
21039;DHT22;10678;51.002;4.786;2022-10-10T06:31:00;10.40;99.90
21039;DHT22;10678;51.002;4.786;2022-10-10T06:33:27;10.50;99.90
21039;DHT22;10678;51.002;4.786;2022-10-10T06:35:52;10.60;99.90
21039;DHT22;10678;51.002;4.786;2022-10-10T06:38:18;10.60;99.90
21039;DHT22;10678;51.002;4.786;2022-10-10T06:40:45;10.70;99.90
21039;DHT22;10678;51.002;4.786;2022-10-10T06:43:12;10.80;99.90
21039;DHT22;10678;51.002;4.786;2022-10-10T06:45:41;10.80;99.90
21039;DHT22;10678;51.002;4.786;2022-10-10T06:48:07;10.80;99.90
21039;DHT22;10678;51.002;4.786;2022-10-10T06:50:33;10.90;99.90
21039;DHT22;10678;51.002;4.786;2022-10-10T06:52:59;11.00;99.90
21039;DHT22;10678;51.002;4.786;2022-10-10T06:55:25;11.00;99.90
21039;DHT22;10678;51.002;4.786;2022-10-10T06:57:50;11.10;99.90
21039;DHT22;10678;51.002;4.786;2022-10-10T07:00:16;11.20;99.90
21039;DHT22;10678;51.002;4.786;2022-10-10T07:02:42;11.20;99.90
21039;DHT22;10678;51.002;4.786;2022-10-10T07:05:09;11.30;99.90
21039;DHT22;10678;51.002;4.786;2022-10-10T07:07:39;11.40;99.90
21039;DHT22;10678;51.002;4.786;2022-10-10T07:10:05;11.40;99.90
21039;DHT22;10678;51.002;4.786;2022-10-10T07:12:31;11.50;99.90
21039;DHT22;10678;51.002;4.786;2022-10-10T07:14:57;11.60;99.90
21039;DHT22;10678;51.002;4.786;2022-10-10T07:17:22;11.70;99.90
21039;DHT22;10678;51.002;4.786;2022-10-10T07:19:48;11.90;99.90
21039;DHT22;10678;51.002;4.786;2022-10-10T07:22:14;12.00;99.90
21039;DHT22;10678;51.002;4.786;2022-10-10T07:24:40;12.30;99.90
21039;DHT22;10678;51.002;4.786;2022-10-10T07:27:05;12.50;99.90
21039;DHT22;10678;51.002;4.786;2022-10-10T07:29:31;12.60;99.90
21039;DHT22;10678;51.002;4.786;2022-10-10T07:31:57;12.90;99.90
21039;DHT22;10678;51.002;4.786;2022-10-10T07:34:22;13.00;99.90
21039;DHT22;10678;51.002;4.786;2022-10-10T07:36:48;13.20;99.90
21039;DHT22;10678;51.002;4.786;2022-10-10T07:39:19;13.40;99.90
21039;DHT22;10678;51.002;4.786;2022-10-10T07:41:44;13.50;99.90
21039;DHT22;10678;51.002;4.786;2022-10-10T07:44:10;13.60;99.90
21039;DHT22;10678;51.002;4.786;2022-10-10T07:46:36;13.70;99.90
21039;DHT22;10678;51.002;4.786;2022-10-10T07:49:01;13.70;99.90
21039;DHT22;10678;51.002;4.786;2022-10-10T07:51:27;13.80;99.90
21039;DHT22;10678;51.002;4.786;2022-10-10T07:53:52;13.90;99.90
21039;DHT22;10678;51.002;4.786;2022-10-10T07:56:18;14.00;99.90
21039;DHT22;10678;51.002;4.786;2022-10-10T07:58:43;14.00;99.90
21039;DHT22;10678;51.002;4.786;2022-10-10T08:01:11;14.00;99.90
21039;DHT22;10678;51.002;4.786;2022-10-10T08:03:38;14.10;99.90
21039;DHT22;10678;51.002;4.786;2022-10-10T08:06:05;14.10;99.90
21039;DHT22;10678;51.002;4.786;2022-10-10T08:08:32;14.20;99.90
21039;DHT22;10678;51.002;4.786;2022-10-10T08:10:58;14.20;99.90
21039;DHT22;10678;51.002;4.786;2022-10-10T08:13:25;14.20;99.90
21039;DHT22;10678;51.002;4.786;2022-10-10T08:15:51;14.20;99.90
21039;DHT22;10678;51.002;4.786;2022-10-10T08:18:17;14.20;99.90
21039;DHT22;10678;51.002;4.786;2022-10-10T08:20:43;14.20;99.90
21039;DHT22;10678;51.002;4.786;2022-10-10T08:23:09;14.10;99.90
21039;DHT22;10678;51.002;4.786;2022-10-10T08:25:34;14.20;99.90
21039;DHT22;10678;51.002;4.786;2022-10-10T08:28:01;14.30;99.90
21039;DHT22;10678;51.002;4.786;2022-10-10T08:30:26;14.40;99.90
21039;DHT22;10678;51.002;4.786;2022-10-10T08:32:52;14.60;99.90
21039;DHT22;10678;51.002;4.786;2022-10-10T08:35:17;14.80;99.90
21039;DHT22;10678;51.002;4.786;2022-10-10T08:37:43;15.00;99.90
21039;DHT22;10678;51.002;4.786;2022-10-10T08:40:18;15.20;99.90
21039;DHT22;10678;51.002;4.786;2022-10-10T08:42:47;15.30;99.90
21039;DHT22;10678;51.002;4.786;2022-10-10T08:45:20;15.40;99.90
21039;DHT22;10678;51.002;4.786;2022-10-10T08:48:06;15.60;99.90
21039;DHT22;10678;51.002;4.786;2022-10-10T08:50:39;16.40;99.90
21039;DHT22;10678;51.002;4.786;2022-10-10T08:53:21;16.90;99.90
21039;DHT22;10678;51.002;4.786;2022-10-10T08:55:49;17.40;99.90
21039;DHT22;10678;51.002;4.786;2022-10-10T08:58:21;17.90;99.90
21039;DHT22;10678;51.002;4.786;2022-10-10T09:03:34;19.50;99.90
21039;DHT22;10678;51.002;4.786;2022-10-10T09:11:49;22.80;99.90
21039;DHT22;10678;51.002;4.786;2022-10-10T09:19:42;23.30;99.90
21039;DHT22;10678;51.002;4.786;2022-10-10T09:22:15;22.80;99.90
21039;DHT22;10678;51.002;4.786;2022-10-10T09:24:50;22.30;99.90
21039;DHT22;10678;51.002;4.786;2022-10-10T09:27:32;21.50;99.90
21039;DHT22;10678;51.002;4.786;2022-10-10T09:30:04;21.40;99.90
21039;DHT22;10678;51.002;4.786;2022-10-10T09:32:37;21.30;99.90
21039;DHT22;10678;51.002;4.786;2022-10-10T09:35:25;21.20;99.90
21039;DHT22;10678;51.002;4.786;2022-10-10T09:38:12;21.00;99.90
21039;DHT22;10678;51.002;4.786;2022-10-10T09:40:45;21.10;99.90
21039;DHT22;10678;51.002;4.786;2022-10-10T09:43:18;21.10;99.90
21039;DHT22;10678;51.002;4.786;2022-10-10T09:45:52;21.10;99.90
21039;DHT22;10678;51.002;4.786;2022-10-10T09:48:26;21.00;99.90
21039;DHT22;10678;51.002;4.786;2022-10-10T09:50:52;20.90;99.90
21039;DHT22;10678;51.002;4.786;2022-10-10T09:53:18;20.90;99.90
21039;DHT22;10678;51.002;4.786;2022-10-10T09:55:45;20.70;99.90
21039;DHT22;10678;51.002;4.786;2022-10-10T09:58:41;20.70;99.90
21039;DHT22;10678;51.002;4.786;2022-10-10T10:03:42;20.70;99.90
21039;DHT22;10678;51.002;4.786;2022-10-10T10:06:13;21.00;99.90
21039;DHT22;10678;51.002;4.786;2022-10-10T10:08:40;21.50;99.90
21039;DHT22;10678;51.002;4.786;2022-10-10T10:11:37;22.20;99.90
21039;DHT22;10678;51.002;4.786;2022-10-10T10:16:44;27.00;99.90
21039;DHT22;10678;51.002;4.786;2022-10-10T10:19:33;27.50;99.90
21039;DHT22;10678;51.002;4.786;2022-10-10T10:21:59;27.70;99.90
21039;DHT22;10678;51.002;4.786;2022-10-10T10:24:33;27.30;99.90
21039;DHT22;10678;51.002;4.786;2022-10-10T10:27:19;26.70;99.90
21039;DHT22;10678;51.002;4.786;2022-10-10T10:29:49;25.80;99.90
21039;DHT22;10678;51.002;4.786;2022-10-10T10:32:35;25.60;99.90
21039;DHT22;10678;51.002;4.786;2022-10-10T10:43:49;24.80;99.90
21039;DHT22;10678;51.002;4.786;2022-10-10T10:46:38;24.80;99.90
21039;DHT22;10678;51.002;4.786;2022-10-10T10:52:14;25.40;99.90
21039;DHT22;10678;51.002;4.786;2022-10-10T11:00:14;24.90;99.90
21039;DHT22;10678;51.002;4.786;2022-10-10T11:02:48;24.70;99.90
21039;DHT22;10678;51.002;4.786;2022-10-10T11:05:39;24.90;99.90
21039;DHT22;10678;51.002;4.786;2022-10-10T11:10:39;25.20;99.90
21039;DHT22;10678;51.002;4.786;2022-10-10T11:13:31;26.20;99.90
21039;DHT22;10678;51.002;4.786;2022-10-10T11:16:17;28.50;99.90
21039;DHT22;10678;51.002;4.786;2022-10-10T11:19:10;29.20;99.90
21039;DHT22;10678;51.002;4.786;2022-10-10T11:21:55;29.10;99.90
21039;DHT22;10678;51.002;4.786;2022-10-10T11:32:58;28.10;99.90
21039;DHT22;10678;51.002;4.786;2022-10-10T11:41:26;28.80;99.90
21039;DHT22;10678;51.002;4.786;2022-10-10T11:44:10;27.80;99.90
21039;DHT22;10678;51.002;4.786;2022-10-10T11:52:00;25.80;99.90
21039;DHT22;10678;51.002;4.786;2022-10-10T11:57:02;25.20;99.90
21039;DHT22;10678;51.002;4.786;2022-10-10T11:59:38;25.00;99.90
21039;DHT22;10678;51.002;4.786;2022-10-10T12:02:36;25.10;99.90
21039;DHT22;10678;51.002;4.786;2022-10-10T12:05:05;24.90;99.90
21039;DHT22;10678;51.002;4.786;2022-10-10T12:07:39;24.40;99.90
21039;DHT22;10678;51.002;4.786;2022-10-10T12:13:24;24.00;99.90
21039;DHT22;10678;51.002;4.786;2022-10-10T12:15:54;23.50;99.90
21039;DHT22;10678;51.002;4.786;2022-10-10T12:18:25;23.30;99.90
21039;DHT22;10678;51.002;4.786;2022-10-10T12:21:08;23.00;99.90
21039;DHT22;10678;51.002;4.786;2022-10-10T12:23:35;22.80;99.90
21039;DHT22;10678;51.002;4.786;2022-10-10T12:26:01;22.60;99.90
21039;DHT22;10678;51.002;4.786;2022-10-10T12:41:53;21.60;99.90
21039;DHT22;10678;51.002;4.786;2022-10-10T12:44:51;21.60;99.90
21039;DHT22;10678;51.002;4.786;2022-10-10T12:49:54;21.40;99.90
21039;DHT22;10678;51.002;4.786;2022-10-10T12:52:27;21.50;99.90
21039;DHT22;10678;51.002;4.786;2022-10-10T12:57:41;21.30;99.90
21039;DHT22;10678;51.002;4.786;2022-10-10T13:00:15;21.20;99.90
21039;DHT22;10678;51.002;4.786;2022-10-10T13:02:44;21.00;99.90
21039;DHT22;10678;51.002;4.786;2022-10-10T13:05:18;20.90;99.90
21039;DHT22;10678;51.002;4.786;2022-10-10T13:07:46;20.70;99.90
21039;DHT22;10678;51.002;4.786;2022-10-10T13:10:25;20.60;99.90
21039;DHT22;10678;51.002;4.786;2022-10-10T13:13:18;20.70;99.90
21039;DHT22;10678;51.002;4.786;2022-10-10T13:15:52;20.80;99.90
21039;DHT22;10678;51.002;4.786;2022-10-10T13:18:40;20.90;99.90
21039;DHT22;10678;51.002;4.786;2022-10-10T13:21:11;20.90;99.90
21039;DHT22;10678;51.002;4.786;2022-10-10T13:23:41;20.90;99.90
21039;DHT22;10678;51.002;4.786;2022-10-10T13:26:37;21.00;99.90
21039;DHT22;10678;51.002;4.786;2022-10-10T13:29:20;21.20;99.90
21039;DHT22;10678;51.002;4.786;2022-10-10T13:31:46;21.50;99.90
21039;DHT22;10678;51.002;4.786;2022-10-10T13:34:16;21.70;99.90
21039;DHT22;10678;51.002;4.786;2022-10-10T13:36:43;21.60;99.90
21039;DHT22;10678;51.002;4.786;2022-10-10T13:39:14;21.70;99.90
21039;DHT22;10678;51.002;4.786;2022-10-10T13:41:44;21.90;99.90
21039;DHT22;10678;51.002;4.786;2022-10-10T13:44:14;22.00;99.90
21039;DHT22;10678;51.002;4.786;2022-10-10T13:46:41;21.80;99.90
21039;DHT22;10678;51.002;4.786;2022-10-10T13:49:33;21.80;99.90
21039;DHT22;10678;51.002;4.786;2022-10-10T13:52:20;21.50;99.90
21039;DHT22;10678;51.002;4.786;2022-10-10T13:54:47;21.60;99.90
21039;DHT22;10678;51.002;4.786;2022-10-10T13:57:19;21.60;99.90
21039;DHT22;10678;51.002;4.786;2022-10-10T13:59:49;21.70;99.90
21039;DHT22;10678;51.002;4.786;2022-10-10T14:02:28;21.70;99.90
21039;DHT22;10678;51.002;4.786;2022-10-10T14:04:55;21.40;99.90
21039;DHT22;10678;51.002;4.786;2022-10-10T14:07:24;21.30;99.90
21039;DHT22;10678;51.002;4.786;2022-10-10T14:09:56;21.00;99.90
21039;DHT22;10678;51.002;4.786;2022-10-10T14:14:53;20.80;99.90
21039;DHT22;10678;51.002;4.786;2022-10-10T14:17:19;20.70;99.90
21039;DHT22;10678;51.002;4.786;2022-10-10T14:19:46;20.60;99.90
21039;DHT22;10678;51.002;4.786;2022-10-10T14:22:12;20.50;99.90
21039;DHT22;10678;51.002;4.786;2022-10-10T14:24:38;20.50;99.90
21039;DHT22;10678;51.002;4.786;2022-10-10T14:29:44;20.40;99.90
21039;DHT22;10678;51.002;4.786;2022-10-10T14:32:11;20.20;99.90
21039;DHT22;10678;51.002;4.786;2022-10-10T14:34:37;20.00;99.90
21039;DHT22;10678;51.002;4.786;2022-10-10T14:37:02;19.80;99.90
21039;DHT22;10678;51.002;4.786;2022-10-10T14:39:28;19.70;99.90
21039;DHT22;10678;51.002;4.786;2022-10-10T14:41:53;19.60;99.90
21039;DHT22;10678;51.002;4.786;2022-10-10T14:44:19;19.50;99.90
21039;DHT22;10678;51.002;4.786;2022-10-10T14:46:45;19.40;99.90
21039;DHT22;10678;51.002;4.786;2022-10-10T14:49:18;19.40;99.90
21039;DHT22;10678;51.002;4.786;2022-10-10T14:51:45;19.40;99.90
21039;DHT22;10678;51.002;4.786;2022-10-10T14:54:10;19.30;99.90
21039;DHT22;10678;51.002;4.786;2022-10-10T14:56:36;19.30;99.90
21039;DHT22;10678;51.002;4.786;2022-10-10T14:59:02;19.30;99.90
21039;DHT22;10678;51.002;4.786;2022-10-10T15:01:27;19.30;99.90
21039;DHT22;10678;51.002;4.786;2022-10-10T15:03:53;19.20;99.90
21039;DHT22;10678;51.002;4.786;2022-10-10T15:06:18;18.80;99.90
21039;DHT22;10678;51.002;4.786;2022-10-10T15:08:44;18.60;99.90
21039;DHT22;10678;51.002;4.786;2022-10-10T15:11:15;18.50;99.90
21039;DHT22;10678;51.002;4.786;2022-10-10T15:13:41;18.40;99.90
21039;DHT22;10678;51.002;4.786;2022-10-10T15:16:07;18.20;99.90
21039;DHT22;10678;51.002;4.786;2022-10-10T15:18:32;18.30;99.90
21039;DHT22;10678;51.002;4.786;2022-10-10T15:20:58;18.10;99.90
21039;DHT22;10678;51.002;4.786;2022-10-10T15:23:23;18.10;99.90
21039;DHT22;10678;51.002;4.786;2022-10-10T15:25:49;18.10;99.90
21039;DHT22;10678;51.002;4.786;2022-10-10T15:28:15;18.10;99.90
21039;DHT22;10678;51.002;4.786;2022-10-10T15:30:44;18.10;99.90
21039;DHT22;10678;51.002;4.786;2022-10-10T15:33:09;18.10;99.90
21039;DHT22;10678;51.002;4.786;2022-10-10T15:35:35;18.00;99.90
21039;DHT22;10678;51.002;4.786;2022-10-10T15:38:01;18.00;99.90
21039;DHT22;10678;51.002;4.786;2022-10-10T15:40:27;17.90;99.90
21039;DHT22;10678;51.002;4.786;2022-10-10T15:42:53;17.70;99.90
21039;DHT22;10678;51.002;4.786;2022-10-10T15:45:19;17.60;99.90
21039;DHT22;10678;51.002;4.786;2022-10-10T15:47:45;17.20;99.90
21039;DHT22;10678;51.002;4.786;2022-10-10T15:50:12;17.20;99.90
21039;DHT22;10678;51.002;4.786;2022-10-10T15:52:41;17.10;99.90
21039;DHT22;10678;51.002;4.786;2022-10-10T15:55:09;17.00;99.90
21039;DHT22;10678;51.002;4.786;2022-10-10T15:57:35;17.00;99.90
21039;DHT22;10678;51.002;4.786;2022-10-10T16:00:00;16.90;99.90
21039;DHT22;10678;51.002;4.786;2022-10-10T16:02:26;17.00;99.90
21039;DHT22;10678;51.002;4.786;2022-10-10T16:04:52;16.80;99.90
21039;DHT22;10678;51.002;4.786;2022-10-10T16:07:17;16.60;99.90
21039;DHT22;10678;51.002;4.786;2022-10-10T16:09:43;16.60;99.90
21039;DHT22;10678;51.002;4.786;2022-10-10T16:12:08;16.40;99.90
21039;DHT22;10678;51.002;4.786;2022-10-10T16:14:34;16.40;99.90
21039;DHT22;10678;51.002;4.786;2022-10-10T16:17:00;16.50;99.90
21039;DHT22;10678;51.002;4.786;2022-10-10T16:19:25;16.30;99.90
21039;DHT22;10678;51.002;4.786;2022-10-10T16:21:51;16.30;99.90
21039;DHT22;10678;51.002;4.786;2022-10-10T16:24:16;16.20;99.90
21039;DHT22;10678;51.002;4.786;2022-10-10T16:26:42;16.30;99.90
21039;DHT22;10678;51.002;4.786;2022-10-10T16:29:08;16.10;99.90
21039;DHT22;10678;51.002;4.786;2022-10-10T16:31:35;16.10;99.90
21039;DHT22;10678;51.002;4.786;2022-10-10T16:34:03;16.00;99.90
21039;DHT22;10678;51.002;4.786;2022-10-10T16:36:31;16.10;99.90
21039;DHT22;10678;51.002;4.786;2022-10-10T16:38:57;16.00;99.90
21039;DHT22;10678;51.002;4.786;2022-10-10T16:41:25;16.00;99.90
21039;DHT22;10678;51.002;4.786;2022-10-10T16:43:51;15.90;99.90
21039;DHT22;10678;51.002;4.786;2022-10-10T16:46:20;15.90;99.90
21039;DHT22;10678;51.002;4.786;2022-10-10T16:48:46;15.80;99.90
21039;DHT22;10678;51.002;4.786;2022-10-10T16:51:17;15.90;99.90
21039;DHT22;10678;51.002;4.786;2022-10-10T16:53:43;15.80;99.90
21039;DHT22;10678;51.002;4.786;2022-10-10T16:56:12;15.80;99.90
21039;DHT22;10678;51.002;4.786;2022-10-10T16:58:39;15.80;99.90
21039;DHT22;10678;51.002;4.786;2022-10-10T17:01:13;15.80;99.90
21039;DHT22;10678;51.002;4.786;2022-10-10T17:03:39;15.90;99.90
21039;DHT22;10678;51.002;4.786;2022-10-10T17:06:07;15.80;99.90
21039;DHT22;10678;51.002;4.786;2022-10-10T17:08:34;15.90;99.90
21039;DHT22;10678;51.002;4.786;2022-10-10T17:10:59;15.90;99.90
21039;DHT22;10678;51.002;4.786;2022-10-10T17:13:26;15.70;99.90
21039;DHT22;10678;51.002;4.786;2022-10-10T17:15:52;15.60;99.90
21039;DHT22;10678;51.002;4.786;2022-10-10T17:18:18;15.60;99.90
21039;DHT22;10678;51.002;4.786;2022-10-10T17:20:45;15.60;99.90
21039;DHT22;10678;51.002;4.786;2022-10-10T17:23:11;15.70;99.90
21039;DHT22;10678;51.002;4.786;2022-10-10T17:25:44;15.60;99.90
21039;DHT22;10678;51.002;4.786;2022-10-10T17:28:10;15.50;99.90
21039;DHT22;10678;51.002;4.786;2022-10-10T17:30:44;15.30;99.90
21039;DHT22;10678;51.002;4.786;2022-10-10T17:33:11;15.20;99.90